Time;durP1;ratioP1;P1;durP2;ratioP2;P2;SDS_P1;SDS_P2;PMS_P1;PMS_P2;Temp;Humidity;BMP_temperature;BMP_pressure;BME280_temperature;BME280_humidity;BME280_pressure;Samples;Min_cycle;Max_cycle;Signal;HPM_P1;HPM_P2
2022/01/03 00:02:24;;;;;;;15.85;2.45;;;;;;;;;;5094936;28;20040;-79
2022/01/03 00:04:50;;;;;;;19.63;2.13;;;;;;;;;;5095412;28;20043;-79
2022/01/03 00:07:16;;;;;;;15.98;2.42;;;;;;;;;;5089440;28;20147;-79
2022/01/03 00:09:42;;;;;;;12.63;2.13;;;;;;;;;;5095916;28;20124;-79
2022/01/03 00:12:09;;;;;;;15.23;2.72;;;;;;;;;;5095931;28;20059;-79
2022/01/03 00:14:35;;;;;;;18.77;2.47;;;;;;;;;;5090263;28;20059;-88
2022/01/03 00:17:01;;;;;;;24.63;3.17;;;;;;;;;;5076400;28;20435;-79
2022/01/03 00:19:28;;;;;;;19.98;4.00;;;;;;;;;;5079687;27;20051;-81
2022/01/03 00:21:56;;;;;;;16.23;2.22;;;;;;;;;;5090722;28;20056;-79
2022/01/03 00:24:25;;;;;;;16.90;2.67;;;;;;;;;;5076234;28;20474;-79
2022/01/03 00:26:55;;;;;;;18.45;2.70;;;;;;;;;;5089481;27;20087;-79
2022/01/03 00:29:23;;;;;;;18.30;3.03;;;;;;;;;;5109072;28;20040;-79
2022/01/03 00:31:49;;;;;;;17.52;3.08;;;;;;;;;;5090309;28;20184;-82
2022/01/03 00:34:15;;;;;;;17.88;2.20;;;;;;;;;;5076457;28;20059;-79
2022/01/03 00:36:44;;;;;;;22.23;3.20;;;;;;;;;;5094737;27;20097;-79
2022/01/03 00:39:11;;;;;;;18.20;2.72;;;;;;;;;;5091470;27;20439;-82
2022/01/03 00:41:39;;;;;;;17.65;2.70;;;;;;;;;;5081654;28;20104;-79
2022/01/03 00:44:05;;;;;;;28.00;2.80;;;;;;;;;;5090760;28;20073;-85
2022/01/03 00:46:32;;;;;;;19.88;3.50;;;;;;;;;;5089821;28;20407;-79
2022/01/03 00:49:00;;;;;;;18.58;3.30;;;;;;;;;;5093392;28;20059;-79
2022/01/03 00:51:26;;;;;;;26.23;3.15;;;;;;;;;;5091253;28;20104;-79
2022/01/03 00:53:52;;;;;;;33.72;4.13;;;;;;;;;;5092391;28;20051;-80
2022/01/03 00:56:25;;;;;;;23.23;4.30;;;;;;;;;;5089742;27;20120;-79
2022/01/03 00:59:00;;;;;;;21.23;3.00;;;;;;;;;;5091960;28;20148;-79
2022/01/03 01:01:27;;;;;;;29.10;4.57;;;;;;;;;;5091270;28;20035;-78
2022/01/03 01:03:55;;;;;;;30.75;4.18;;;;;;;;;;5074458;28;20043;-85
2022/01/03 01:06:22;;;;;;;27.25;3.40;;;;;;;;;;5091725;28;20039;-79
2022/01/03 01:08:49;;;;;;;25.15;3.13;;;;;;;;;;5075797;28;20063;-81
2022/01/03 01:11:16;;;;;;;20.70;3.45;;;;;;;;;;5057156;28;20066;-80
2022/01/03 01:13:44;;;;;;;24.58;4.10;;;;;;;;;;5095553;27;20063;-84
2022/01/03 01:16:10;;;;;;;34.78;5.13;;;;;;;;;;5095709;27;20051;-80
2022/01/03 01:18:36;;;;;;;31.80;4.32;;;;;;;;;;5095977;28;20043;-80
2022/01/03 01:21:06;;;;;;;27.83;4.03;;;;;;;;;;5089805;27;20054;-79
2022/01/03 01:23:33;;;;;;;28.52;3.72;;;;;;;;;;5080872;28;20130;-79
2022/01/03 01:28:44;;;;;;;24.95;3.97;;;;;;;;;;5107704;27;20070;-78
2022/01/03 01:31:12;;;;;;;22.02;3.50;;;;;;;;;;5090441;27;20134;-79
2022/01/03 01:33:40;;;;;;;30.17;4.57;;;;;;;;;;5085585;28;20047;-84
2022/01/03 01:36:06;;;;;;;29.13;3.85;;;;;;;;;;5104870;28;20046;-79
2022/01/03 01:38:34;;;;;;;36.17;4.15;;;;;;;;;;5110282;28;20040;-80
2022/01/03 01:41:01;;;;;;;24.90;4.57;;;;;;;;;;5105940;28;20044;-79
2022/01/03 01:43:36;;;;;;;22.08;3.10;;;;;;;;;;5073436;28;20094;-81
2022/01/03 01:46:04;;;;;;;22.42;3.60;;;;;;;;;;5102308;28;20042;-79
2022/01/03 01:48:31;;;;;;;20.88;3.58;;;;;;;;;;5107682;28;20418;-85
2022/01/03 01:50:58;;;;;;;30.63;3.83;;;;;;;;;;5074006;28;20469;-80
2022/01/03 01:53:26;;;;;;;37.88;5.78;;;;;;;;;;5098002;28;20043;-78
2022/01/03 01:55:53;;;;;;;27.30;4.43;;;;;;;;;;5093104;28;20427;-79
2022/01/03 01:58:30;;;;;;;21.25;3.42;;;;;;;;;;5108607;28;20385;-82
2022/01/03 02:00:58;;;;;;;34.90;4.72;;;;;;;;;;5079749;28;20050;-80
2022/01/03 02:03:30;;;;;;;31.25;5.45;;;;;;;;;;5081833;28;20058;-79
2022/01/03 02:06:16;;;;;;;33.70;4.60;;;;;;;;;;5090056;28;20398;-85
2022/01/03 02:08:49;;;;;;;24.05;3.58;;;;;;;;;;5050624;28;20075;-80
2022/01/03 02:11:21;;;;;;;24.08;3.65;;;;;;;;;;5078031;28;20091;-80
2022/01/03 02:13:48;;;;;;;30.98;3.85;;;;;;;;;;5069344;28;20109;-82
2022/01/03 02:16:14;;;;;;;26.30;4.40;;;;;;;;;;5051862;28;20047;-80
2022/01/03 02:18:40;;;;;;;33.20;4.88;;;;;;;;;;5090237;28;20047;-79
2022/01/03 02:21:06;;;;;;;31.33;4.50;;;;;;;;;;5053604;28;20044;-79
2022/01/03 02:23:34;;;;;;;31.08;5.05;;;;;;;;;;5073160;28;20048;-84
2022/01/03 02:26:00;;;;;;;32.97;4.13;;;;;;;;;;5038593;28;20044;-79
2022/01/03 02:28:26;;;;;;;32.47;3.78;;;;;;;;;;5069475;28;20079;-82
2022/01/03 02:30:52;;;;;;;32.95;4.85;;;;;;;;;;5087924;28;20044;-79
2022/01/03 02:33:19;;;;;;;30.08;6.90;;;;;;;;;;5056704;28;20130;-79
2022/01/03 02:35:45;;;;;;;33.42;5.88;;;;;;;;;;5057520;28;20052;-84
2022/01/03 02:38:12;;;;;;;29.90;4.85;;;;;;;;;;5068306;28;20048;-81
2022/01/03 02:40:38;;;;;;;30.05;4.30;;;;;;;;;;5070350;28;20044;-79
2022/01/03 02:43:05;;;;;;;35.22;4.65;;;;;;;;;;5077967;28;20604;-81
2022/01/03 02:45:31;;;;;;;35.10;4.13;;;;;;;;;;5076373;28;20039;-79
2022/01/03 02:48:02;;;;;;;25.60;4.20;;;;;;;;;;5078149;28;20040;-79
2022/01/03 02:50:29;;;;;;;31.80;5.15;;;;;;;;;;5073524;28;20058;-79
2022/01/03 02:52:55;;;;;;;33.38;5.70;;;;;;;;;;5078967;28;20079;-80
2022/01/03 02:55:22;;;;;;;23.15;3.75;;;;;;;;;;5057723;28;20428;-82
2022/01/03 02:57:53;;;;;;;30.35;5.60;;;;;;;;;;5071204;28;20146;-78
2022/01/03 03:00:21;;;;;;;26.23;4.93;;;;;;;;;;5058004;28;20043;-78
2022/01/03 03:02:48;;;;;;;36.25;5.38;;;;;;;;;;5091430;28;20236;-84
2022/01/03 03:05:14;;;;;;;29.90;4.68;;;;;;;;;;5073376;28;21518;-78
2022/01/03 03:07:40;;;;;;;33.40;4.40;;;;;;;;;;5042775;28;20074;-79
2022/01/03 03:10:08;;;;;;;34.03;4.88;;;;;;;;;;5074389;28;20059;-77
2022/01/03 03:12:34;;;;;;;29.45;5.47;;;;;;;;;;5058066;28;20087;-78
2022/01/03 03:15:00;;;;;;;28.48;4.45;;;;;;;;;;5058366;28;20054;-79
2022/01/03 03:17:26;;;;;;;32.38;5.15;;;;;;;;;;5075025;28;20044;-77
2022/01/03 03:19:54;;;;;;;31.52;5.10;;;;;;;;;;5057593;28;20058;-87
2022/01/03 03:22:20;;;;;;;38.88;5.88;;;;;;;;;;5058214;28;20751;-78
2022/01/03 03:24:46;;;;;;;35.65;5.82;;;;;;;;;;5057918;28;20335;-78
2022/01/03 03:27:12;;;;;;;39.25;4.75;;;;;;;;;;5070155;28;20256;-78
2022/01/03 03:29:49;;;;;;;31.83;5.40;;;;;;;;;;5076027;28;20043;-78
2022/01/03 03:32:15;;;;;;;36.25;5.32;;;;;;;;;;5070552;28;20052;-79
2022/01/03 03:34:41;;;;;;;41.80;5.15;;;;;;;;;;5073614;28;20043;-78
2022/01/03 03:37:07;;;;;;;27.13;4.15;;;;;;;;;;5073834;28;20044;-83
2022/01/03 03:39:34;;;;;;;42.25;5.00;;;;;;;;;;5073789;28;20129;-79
2022/01/03 03:42:09;;;;;;;35.15;5.15;;;;;;;;;;5056855;28;20040;-80
2022/01/03 03:44:35;;;;;;;34.70;5.70;;;;;;;;;;5058486;28;20056;-79
2022/01/03 03:47:02;;;;;;;31.02;5.38;;;;;;;;;;5070661;28;20126;-80
2022/01/03 03:49:28;;;;;;;38.72;6.22;;;;;;;;;;5037821;28;20056;-79
2022/01/03 03:51:54;;;;;;;31.40;5.20;;;;;;;;;;5071381;28;20071;-91
2022/01/03 03:54:20;;;;;;;30.90;5.95;;;;;;;;;;5073341;28;20407;-83
2022/01/03 03:56:46;;;;;;;28.75;5.07;;;;;;;;;;5071287;28;20048;-79
2022/01/03 03:59:12;;;;;;;31.20;4.95;;;;;;;;;;5055382;28;20120;-80
2022/01/03 04:01:39;;;;;;;35.47;5.85;;;;;;;;;;5059725;28;20043;-78
2022/01/03 04:04:05;;;;;;;39.60;5.82;;;;;;;;;;5074288;28;20362;-79
2022/01/03 04:06:31;;;;;;;46.97;5.65;;;;;;;;;;5070725;28;20059;-79
2022/01/03 04:08:57;;;;;;;33.47;5.03;;;;;;;;;;5072649;28;20042;-78
2022/01/03 04:11:23;;;;;;;35.15;6.13;;;;;;;;;;5086340;28;20060;-79
2022/01/03 04:13:49;;;;;;;38.95;5.95;;;;;;;;;;5086611;28;20481;-78
2022/01/03 04:16:16;;;;;;;33.03;4.72;;;;;;;;;;5070326;28;20054;-78
2022/01/03 04:18:42;;;;;;;37.67;5.18;;;;;;;;;;5067750;28;20479;-85
2022/01/03 04:21:08;;;;;;;38.42;5.68;;;;;;;;;;5070650;28;20169;-79
2022/01/03 04:23:35;;;;;;;34.88;5.78;;;;;;;;;;5072053;28;20517;-83
2022/01/03 04:26:04;;;;;;;38.25;5.57;;;;;;;;;;5075081;28;20471;-79
2022/01/03 04:28:30;;;;;;;31.60;5.35;;;;;;;;;;5071107;28;20489;-81
2022/01/03 04:30:56;;;;;;;33.70;4.47;;;;;;;;;;5057679;28;20055;-78
2022/01/03 04:33:22;;;;;;;31.85;4.70;;;;;;;;;;5037855;28;20082;-83
2022/01/03 04:35:48;;;;;;;31.95;5.18;;;;;;;;;;5068914;28;20036;-78
2022/01/03 04:38:14;;;;;;;42.75;5.05;;;;;;;;;;5069782;28;20046;-77
2022/01/03 04:40:40;;;;;;;41.22;6.15;;;;;;;;;;5070531;28;20040;-78
2022/01/03 04:43:06;;;;;;;35.10;5.38;;;;;;;;;;5074166;28;20051;-81
2022/01/03 04:45:32;;;;;;;31.60;5.00;;;;;;;;;;5071415;28;20487;-78
2022/01/03 04:47:59;;;;;;;33.75;5.03;;;;;;;;;;5089295;28;20051;-91
2022/01/03 04:50:25;;;;;;;38.00;7.20;;;;;;;;;;5054377;28;20059;-78
2022/01/03 04:52:51;;;;;;;41.00;5.72;;;;;;;;;;5073342;28;20094;-78
2022/01/03 04:55:17;;;;;;;37.38;5.38;;;;;;;;;;5076596;28;20039;-78
2022/01/03 04:57:43;;;;;;;35.95;6.78;;;;;;;;;;5070127;28;20419;-78
2022/01/03 05:00:10;;;;;;;34.05;6.05;;;;;;;;;;5066522;28;20044;-80
2022/01/03 05:02:37;;;;;;;33.75;5.15;;;;;;;;;;5068728;28;20059;-83
2022/01/03 05:05:04;;;;;;;36.05;5.30;;;;;;;;;;5092791;28;20069;-78
2022/01/03 05:07:30;;;;;;;48.15;5.55;;;;;;;;;;5073761;28;20039;-77
2022/01/03 05:09:56;;;;;;;40.67;5.30;;;;;;;;;;5038306;28;20052;-77
2022/01/03 05:12:22;;;;;;;38.45;5.72;;;;;;;;;;5060249;28;20491;-77
2022/01/03 05:14:48;;;;;;;35.75;4.95;;;;;;;;;;5091030;28;20047;-77
2022/01/03 05:17:14;;;;;;;47.85;6.93;;;;;;;;;;5091599;28;20055;-77
2022/01/03 05:19:40;;;;;;;33.30;5.60;;;;;;;;;;5110010;28;20043;-78
2022/01/03 05:22:07;;;;;;;40.00;6.45;;;;;;;;;;5057949;28;20055;-81
2022/01/03 05:24:35;;;;;;;35.15;5.93;;;;;;;;;;5091659;28;20135;-81
2022/01/03 05:27:05;;;;;;;42.08;5.53;;;;;;;;;;5105188;28;20051;-79
2022/01/03 05:29:32;;;;;;;44.90;7.10;;;;;;;;;;5091165;28;20048;-79
2022/01/03 05:31:58;;;;;;;37.35;5.50;;;;;;;;;;5091329;28;20050;-77
2022/01/03 05:34:24;;;;;;;42.28;6.93;;;;;;;;;;5087679;28;20090;-77
2022/01/03 05:36:50;;;;;;;37.83;6.18;;;;;;;;;;5089955;28;20063;-77
2022/01/03 05:39:17;;;;;;;37.30;6.68;;;;;;;;;;5089216;28;20035;-82
2022/01/03 05:41:44;;;;;;;41.35;6.45;;;;;;;;;;5089994;28;20079;-78
2022/01/03 05:44:10;;;;;;;40.63;6.40;;;;;;;;;;5090196;28;20454;-79
2022/01/03 05:46:37;;;;;;;39.72;6.35;;;;;;;;;;5092749;28;20039;-79
2022/01/03 05:49:04;;;;;;;32.75;5.53;;;;;;;;;;5073670;28;20043;-77
2022/01/03 05:51:30;;;;;;;47.55;6.32;;;;;;;;;;5089033;28;20478;-75
2022/01/03 05:53:56;;;;;;;49.17;7.07;;;;;;;;;;5090374;28;20098;-78
2022/01/03 05:56:22;;;;;;;35.17;6.28;;;;;;;;;;5097914;28;20106;-77
2022/01/03 05:58:49;;;;;;;38.17;6.20;;;;;;;;;;5090406;28;20039;-76
2022/01/03 06:01:15;;;;;;;46.97;6.50;;;;;;;;;;5108366;28;20055;-76
2022/01/03 06:03:41;;;;;;;40.88;5.40;;;;;;;;;;5092004;28;20473;-77
2022/01/03 06:06:20;;;;;;;41.17;6.35;;;;;;;;;;5073945;28;20062;-80
2022/01/03 06:08:46;;;;;;;35.90;5.40;;;;;;;;;;5089416;28;20150;-77
2022/01/03 06:11:12;;;;;;;40.33;7.10;;;;;;;;;;5062652;28;20553;-77
2022/01/03 06:13:38;;;;;;;39.17;6.47;;;;;;;;;;5071644;28;20074;-78
2022/01/03 06:16:04;;;;;;;45.05;6.25;;;;;;;;;;5057689;28;20115;-77
2022/01/03 06:18:31;;;;;;;35.67;5.50;;;;;;;;;;5073419;28;20054;-77
2022/01/03 06:20:57;;;;;;;39.45;5.13;;;;;;;;;;5072997;28;20040;-77
2022/01/03 06:23:23;;;;;;;40.45;6.13;;;;;;;;;;5057649;28;20105;-78
2022/01/03 06:25:49;;;;;;;45.00;7.40;;;;;;;;;;5073057;28;20076;-76
2022/01/03 06:28:15;;;;;;;43.70;8.23;;;;;;;;;;5041612;28;20059;-77
2022/01/03 06:30:42;;;;;;;40.78;6.03;;;;;;;;;;5076062;28;20051;-77
2022/01/03 06:33:09;;;;;;;39.33;6.22;;;;;;;;;;5100752;28;20092;-88
2022/01/03 06:35:36;;;;;;;36.65;6.63;;;;;;;;;;5079089;28;20109;-76
2022/01/03 06:38:03;;;;;;;47.10;7.05;;;;;;;;;;5074927;28;20044;-82
2022/01/03 06:40:29;;;;;;;37.22;5.65;;;;;;;;;;5070347;28;20083;-77
2022/01/03 06:42:55;;;;;;;38.17;6.05;;;;;;;;;;5089859;28;20067;-81
2022/01/03 06:45:21;;;;;;;29.80;5.22;;;;;;;;;;5075652;28;20039;-82
2022/01/03 06:47:47;;;;;;;42.28;7.22;;;;;;;;;;5077740;28;20040;-82
2022/01/03 06:50:13;;;;;;;44.78;7.10;;;;;;;;;;5055176;28;20058;-80
2022/01/03 06:52:39;;;;;;;38.35;5.65;;;;;;;;;;5074643;28;20114;-80
2022/01/03 06:55:08;;;;;;;49.60;5.95;;;;;;;;;;5062887;28;20187;-79
2022/01/03 06:57:34;;;;;;;44.83;5.97;;;;;;;;;;5073434;28;20087;-82
2022/01/03 07:00:00;;;;;;;40.40;5.80;;;;;;;;;;5073155;28;20040;-81
2022/01/03 07:02:26;;;;;;;40.28;5.97;;;;;;;;;;5056533;28;20047;-79
2022/01/03 07:04:52;;;;;;;46.80;6.63;;;;;;;;;;5071262;28;20036;-79
2022/01/03 07:07:18;;;;;;;46.42;6.43;;;;;;;;;;5066584;28;20430;-80
2022/01/03 07:09:44;;;;;;;38.75;5.13;;;;;;;;;;5073995;28;20048;-79
2022/01/03 07:12:11;;;;;;;52.03;6.50;;;;;;;;;;5074228;28;20237;-81
2022/01/03 07:19:58;;;;;;;32.08;5.93;;;;;;;;;;5077098;28;20055;-79
2022/01/03 07:22:24;;;;;;;;;;;;;;;;;;5065419;28;20539;-80
2022/01/03 07:24:51;;;;;;;40.72;5.90;;;;;;;;;;5094035;28;19959;-79
2022/01/03 07:27:17;;;;;;;37.30;5.80;;;;;;;;;;5082982;28;20075;-80
2022/01/03 07:29:44;;;;;;;39.28;5.78;;;;;;;;;;5087454;28;20498;-80
2022/01/03 07:32:10;;;;;;;40.22;6.28;;;;;;;;;;5085358;28;20106;-79
2022/01/03 07:34:36;;;;;;;44.63;6.82;;;;;;;;;;5085195;28;20058;-84
2022/01/03 07:37:03;;;;;;;49.53;6.05;;;;;;;;;;5073603;28;20044;-80
2022/01/03 07:39:30;;;;;;;38.28;7.20;;;;;;;;;;5085602;28;20128;-77
2022/01/03 07:41:57;;;;;;;46.20;6.72;;;;;;;;;;5086527;28;20124;-77
2022/01/03 07:44:23;;;;;;;62.78;18.15;;;;;;;;;;5087578;28;20066;-81
2022/01/03 07:46:49;;;;;;;45.47;6.25;;;;;;;;;;5071991;28;20046;-81
2022/01/03 07:49:16;;;;;;;35.17;6.40;;;;;;;;;;5086170;28;20076;-84
2022/01/03 07:51:42;;;;;;;45.72;6.20;;;;;;;;;;5088908;28;20044;-82
2022/01/03 07:54:08;;;;;;;44.70;5.82;;;;;;;;;;5088707;28;20106;-77
2022/01/03 07:56:34;;;;;;;34.75;5.18;;;;;;;;;;5086811;28;20040;-78
2022/01/03 07:59:00;;;;;;;50.75;6.20;;;;;;;;;;5087150;28;20036;-84
2022/01/03 08:01:27;;;;;;;41.40;6.40;;;;;;;;;;5068756;28;20049;-77
2022/01/03 08:03:53;;;;;;;49.47;7.22;;;;;;;;;;5067981;28;20048;-80
2022/01/03 08:06:20;;;;;;;40.92;7.10;;;;;;;;;;5084344;28;20036;-84
2022/01/03 08:08:46;;;;;;;48.75;5.43;;;;;;;;;;5064547;28;20380;-80
2022/01/03 08:11:12;;;;;;;40.22;6.18;;;;;;;;;;5066111;28;20086;-74
2022/01/03 08:13:38;;;;;;;40.35;5.75;;;;;;;;;;5060727;28;20055;-73
2022/01/03 08:16:04;;;;;;;44.47;6.20;;;;;;;;;;5078762;28;20054;-82
2022/01/03 08:18:33;;;;;;;40.63;5.57;;;;;;;;;;5080507;28;20110;-76
2022/01/03 08:21:00;;;;;;;47.22;6.57;;;;;;;;;;5085576;28;20448;-76
2022/01/03 08:23:26;;;;;;;42.85;5.32;;;;;;;;;;5086194;28;20059;-80
2022/01/03 08:25:52;;;;;;;48.47;7.28;;;;;;;;;;5086786;28;20052;-75
2022/01/03 08:28:18;;;;;;;44.03;5.82;;;;;;;;;;5067490;28;20384;-83
2022/01/03 08:30:44;;;;;;;52.00;6.43;;;;;;;;;;5077385;28;20067;-76
2022/01/03 08:33:11;;;;;;;43.65;5.80;;;;;;;;;;5065993;28;20081;-77
2022/01/03 08:35:37;;;;;;;35.67;6.63;;;;;;;;;;5065746;28;20055;-78
2022/01/03 08:38:04;;;;;;;38.35;5.80;;;;;;;;;;5083213;28;20046;-76
2022/01/03 08:40:31;;;;;;;45.13;6.55;;;;;;;;;;5085610;28;20079;-75
2022/01/03 08:42:57;;;;;;;51.47;5.97;;;;;;;;;;5086415;28;20075;-79
2022/01/03 08:45:23;;;;;;;38.63;5.47;;;;;;;;;;5051332;28;20052;-74
2022/01/03 08:47:50;;;;;;;44.63;7.25;;;;;;;;;;5066976;28;20344;-75
2022/01/03 08:50:17;;;;;;;34.55;6.10;;;;;;;;;;5087768;28;20043;-81
2022/01/03 08:52:44;;;;;;;40.88;5.70;;;;;;;;;;5071385;28;20044;-77
2022/01/03 08:55:10;;;;;;;43.45;5.95;;;;;;;;;;5088159;28;20036;-77
2022/01/03 08:57:37;;;;;;;45.38;5.93;;;;;;;;;;5084109;28;20041;-80
2022/01/03 09:00:04;;;;;;;37.08;6.22;;;;;;;;;;5085285;28;20051;-76
2022/01/03 09:02:30;;;;;;;48.85;6.70;;;;;;;;;;5079364;28;20044;-77
2022/01/03 09:04:56;;;;;;;44.70;6.63;;;;;;;;;;5087752;28;20498;-76
2022/01/03 09:07:22;;;;;;;43.05;6.18;;;;;;;;;;5084029;28;20052;-70
2022/01/03 09:09:48;;;;;;;42.13;6.35;;;;;;;;;;5084565;28;20115;-71
2022/01/03 09:12:14;;;;;;;36.17;5.75;;;;;;;;;;5093651;28;20063;-76
2022/01/03 09:14:40;;;;;;;34.53;5.78;;;;;;;;;;5088900;28;20056;-74
2022/01/03 09:17:06;;;;;;;35.10;5.63;;;;;;;;;;5103554;27;20430;-74
2022/01/03 09:19:35;;;;;;;34.45;6.10;;;;;;;;;;5035793;28;20043;-73
2022/01/03 09:22:18;;;;;;;32.17;5.15;;;;;;;;;;5067519;28;20082;-73
2022/01/03 09:30:20;;;;;;;37.22;6.22;;;;;;;;;;5056809;28;20634;-71
2022/01/03 09:32:46;;;;;;;39.67;5.28;;;;;;;;;;5104576;27;20052;-73
2022/01/03 09:35:12;;;;;;;36.45;6.38;;;;;;;;;;5072950;28;20143;-74
2022/01/03 09:37:39;;;;;;;42.78;7.07;;;;;;;;;;5067930;28;20040;-70
2022/01/03 09:40:06;;;;;;;40.10;6.78;;;;;;;;;;5058324;28;20051;-73
2022/01/03 09:42:34;;;;;;;43.35;6.07;;;;;;;;;;5070834;28;20052;-75
2022/01/03 09:45:02;;;;;;;46.15;7.68;;;;;;;;;;5098379;28;20123;-85
2022/01/03 09:47:29;;;;;;;37.55;6.18;;;;;;;;;;5065495;28;20347;-80
2022/01/03 09:49:56;;;;;;;49.75;7.45;;;;;;;;;;5066975;28;20075;-88
2022/01/03 09:52:24;;;;;;;39.33;5.53;;;;;;;;;;5051034;28;20049;-89
2022/01/03 09:54:50;;;;;;;33.20;5.07;;;;;;;;;;5078032;28;20038;-79
2022/01/03 09:57:18;;;;;;;35.03;5.68;;;;;;;;;;5066923;28;20032;-78
2022/01/03 09:59:44;;;;;;;40.85;5.45;;;;;;;;;;5088328;28;20036;-78
2022/01/03 10:02:11;;;;;;;40.25;6.88;;;;;;;;;;5070408;28;20174;-75
2022/01/03 10:04:37;;;;;;;41.88;6.72;;;;;;;;;;5086544;28;20047;-75
2022/01/03 10:07:04;;;;;;;46.10;6.00;;;;;;;;;;5068408;28;20127;-75
2022/01/03 10:09:31;;;;;;;42.92;6.40;;;;;;;;;;5087869;28;20032;-76
2022/01/03 10:11:58;;;;;;;32.95;5.18;;;;;;;;;;5081296;28;20126;-74
2022/01/03 10:14:24;;;;;;;31.50;5.88;;;;;;;;;;5087002;28;20040;-75
2022/01/03 10:16:50;;;;;;;37.67;7.40;;;;;;;;;;5085170;28;20086;-76
2022/01/03 10:19:16;;;;;;;36.13;5.35;;;;;;;;;;5083931;28;20044;-75
2022/01/03 10:21:44;;;;;;;29.70;5.25;;;;;;;;;;5084672;28;20044;-75
2022/01/03 10:24:11;;;;;;;37.30;6.43;;;;;;;;;;5087800;28;20056;-75
2022/01/03 10:26:38;;;;;;;33.17;5.30;;;;;;;;;;5086448;28;20046;-75
2022/01/03 10:29:15;;;;;;;34.05;5.70;;;;;;;;;;5087792;28;20501;-75
2022/01/03 10:31:42;;;;;;;31.08;5.25;;;;;;;;;;5087603;28;20039;-74
2022/01/03 10:34:09;;;;;;;37.63;5.50;;;;;;;;;;5069160;28;20063;-75
2022/01/03 10:36:36;;;;;;;37.13;6.70;;;;;;;;;;5084586;28;20050;-75
2022/01/03 10:39:17;;;;;;;41.42;5.72;;;;;;;;;;5092551;28;20059;-76
2022/01/03 10:41:48;;;;;;;35.35;6.32;;;;;;;;;;5065789;28;20047;-75
2022/01/03 10:44:30;;;;;;;31.60;6.10;;;;;;;;;;5083659;28;20067;-78
2022/01/03 10:46:56;;;;;;;31.95;5.43;;;;;;;;;;5083025;28;20486;-76
2022/01/03 10:49:25;;;;;;;35.45;5.57;;;;;;;;;;5086113;28;20071;-75
2022/01/03 10:51:51;;;;;;;36.42;5.90;;;;;;;;;;5082951;28;20546;-75
2022/01/03 10:54:19;;;;;;;35.83;5.82;;;;;;;;;;5064740;28;20036;-77
2022/01/03 10:56:50;;;;;;;37.10;5.03;;;;;;;;;;5083923;28;20036;-77
2022/01/03 10:59:18;;;;;;;42.10;6.00;;;;;;;;;;5086408;28;20036;-74
2022/01/03 11:01:46;;;;;;;36.75;5.35;;;;;;;;;;5087015;28;20065;-74
2022/01/03 11:04:24;;;;;;;34.05;6.00;;;;;;;;;;5085962;28;20437;-78
2022/01/03 11:10:43;;;;;;;33.00;4.85;;;;;;;;;;5069373;28;20036;-75
2022/01/03 11:12:40;;;;;;;42.63;6.50;;;;;;;;;;5094391;27;20324;-78
2022/01/03 11:15:20;;;;;;;38.67;6.57;;;;;;;;;;5095112;28;20044;-74
2022/01/03 11:17:47;;;;;;;40.15;5.80;;;;;;;;;;5077825;28;20402;-77
2022/01/03 11:20:21;;;;;;;30.33;5.25;;;;;;;;;;5099818;28;20044;-79
2022/01/03 11:22:49;;;;;;;38.83;6.63;;;;;;;;;;5096482;28;20044;-76
2022/01/03 11:25:18;;;;;;;29.67;4.60;;;;;;;;;;5093686;28;20044;-78
2022/01/03 11:27:44;;;;;;;28.95;4.80;;;;;;;;;;5073011;28;20082;-81
2022/01/03 11:30:11;;;;;;;30.25;4.65;;;;;;;;;;5077456;28;20046;-79
2022/01/03 11:32:43;;;;;;;36.22;5.50;;;;;;;;;;5092814;28;20505;-80
2022/01/03 11:35:10;;;;;;;32.13;5.10;;;;;;;;;;5089342;27;20074;-78
2022/01/03 11:37:39;;;;;;;41.30;5.97;;;;;;;;;;5091971;28;20131;-76
2022/01/03 11:40:06;;;;;;;25.48;4.25;;;;;;;;;;5111181;27;20039;-76
2022/01/03 11:42:33;;;;;;;39.42;6.38;;;;;;;;;;5075951;27;20052;-75
2022/01/03 11:44:59;;;;;;;30.85;5.07;;;;;;;;;;5092226;27;20475;-76
2022/01/03 11:47:29;;;;;;;34.05;6.45;;;;;;;;;;5104978;27;20047;-80
2022/01/03 11:49:55;;;;;;;36.60;5.07;;;;;;;;;;5089561;28;20555;-77
2022/01/03 11:52:22;;;;;;;31.95;4.65;;;;;;;;;;5090273;28;20105;-76
2022/01/03 11:54:50;;;;;;;34.70;6.00;;;;;;;;;;5092153;28;20490;-77
2022/01/03 11:57:45;;;;;;;33.80;5.13;;;;;;;;;;5110453;27;20482;-76
2022/01/03 12:05:47;;;;;;;32.80;5.45;;;;;;;;;;5090152;28;20048;-76
2022/01/03 12:08:22;;;;;;;38.45;4.97;;;;;;;;;;5091987;28;20043;-76
2022/01/03 12:10:49;;;;;;;33.10;6.28;;;;;;;;;;5085671;28;20060;-75
2022/01/03 12:13:15;;;;;;;31.10;5.50;;;;;;;;;;5084646;28;20048;-74
2022/01/03 12:15:42;;;;;;;32.13;5.78;;;;;;;;;;5068940;28;20122;-75
2022/01/03 12:18:30;;;;;;;33.25;5.55;;;;;;;;;;5083926;28;20048;-77
2022/01/03 12:20:57;;;;;;;30.95;4.82;;;;;;;;;;5087265;28;20066;-76
2022/01/03 12:23:43;;;;;;;29.23;5.75;;;;;;;;;;5089529;28;20467;-76
2022/01/03 12:26:13;;;;;;;31.55;5.50;;;;;;;;;;5069783;28;20130;-79
2022/01/03 12:28:58;;;;;;;27.98;4.88;;;;;;;;;;5089722;28;20123;-76
2022/01/03 12:31:24;;;;;;;32.90;5.05;;;;;;;;;;5088124;28;20040;-78
2022/01/03 12:34:09;;;;;;;31.67;5.10;;;;;;;;;;5069877;28;20043;-78
2022/01/03 12:36:35;;;;;;;27.55;4.32;;;;;;;;;;5070156;28;20158;-78
2022/01/03 12:39:03;;;;;;;38.30;6.25;;;;;;;;;;5066176;28;20040;-78
2022/01/03 12:41:40;;;;;;;28.67;4.70;;;;;;;;;;5083501;28;20063;-76
2022/01/03 12:44:09;;;;;;;30.88;5.15;;;;;;;;;;5083170;28;20817;-75
2022/01/03 12:46:35;;;;;;;27.38;5.22;;;;;;;;;;5088599;28;20051;-75
2022/01/03 12:49:21;;;;;;;28.52;5.25;;;;;;;;;;5086298;28;20215;-76
2022/01/03 12:51:47;;;;;;;31.58;4.70;;;;;;;;;;5067868;28;20046;-75
2022/01/03 12:54:13;;;;;;;27.45;4.88;;;;;;;;;;5081817;28;20051;-77
2022/01/03 12:56:39;;;;;;;43.30;6.10;;;;;;;;;;5049897;28;20048;-76
2022/01/03 12:59:14;;;;;;;29.30;5.35;;;;;;;;;;5067026;28;21552;-77
2022/01/03 13:01:40;;;;;;;35.70;6.10;;;;;;;;;;5067542;28;20151;-77
2022/01/03 13:04:19;;;;;;;36.42;5.25;;;;;;;;;;5082502;28;20445;-76
2022/01/03 13:06:46;;;;;;;31.65;5.97;;;;;;;;;;5084931;28;20132;-78
2022/01/03 13:09:13;;;;;;;35.53;5.30;;;;;;;;;;5084697;28;20089;-76
2022/01/03 13:11:44;;;;;;;30.30;5.05;;;;;;;;;;5082553;28;21080;-76
2022/01/03 13:14:12;;;;;;;35.22;4.50;;;;;;;;;;5088852;28;20059;-77
2022/01/03 13:16:43;;;;;;;30.67;5.03;;;;;;;;;;5071327;28;20047;-74
2022/01/03 13:19:16;;;;;;;33.85;5.38;;;;;;;;;;5072211;28;20130;-74
2022/01/03 13:21:55;;;;;;;36.65;5.60;;;;;;;;;;5068246;28;20040;-74
2022/01/03 13:24:30;;;;;;;30.15;5.22;;;;;;;;;;5084035;28;20574;-76
2022/01/03 13:26:57;;;;;;;33.35;6.13;;;;;;;;;;5083162;28;20067;-75
2022/01/03 13:29:25;;;;;;;36.65;4.88;;;;;;;;;;5068303;28;20056;-74
2022/01/03 13:31:52;;;;;;;36.88;5.72;;;;;;;;;;5083824;28;20155;-75
2022/01/03 13:34:22;;;;;;;35.17;5.40;;;;;;;;;;5067242;28;20052;-75
2022/01/03 13:36:49;;;;;;;29.52;4.63;;;;;;;;;;5088390;28;20044;-74
2022/01/03 13:39:18;;;;;;;32.20;5.55;;;;;;;;;;5082868;28;20525;-75
2022/01/03 13:41:52;;;;;;;37.20;5.30;;;;;;;;;;5085339;28;20123;-75
2022/01/03 13:49:11;;;;;;;29.88;5.85;;;;;;;;;;5086589;28;20048;-75
2022/01/03 13:50:10;;;;;;;33.20;5.97;;;;;;;;;;5085682;28;20074;-74
2022/01/03 13:52:40;;;;;;;39.92;5.80;;;;;;;;;;5085329;28;20048;-76
2022/01/03 13:55:34;;;;;;;40.83;5.93;;;;;;;;;;5084934;28;20048;-75
2022/01/03 13:58:00;;;;;;;37.42;5.40;;;;;;;;;;5080755;28;20102;-76
2022/01/03 14:00:26;;;;;;;32.10;5.60;;;;;;;;;;5084289;28;20044;-75
2022/01/03 14:02:53;;;;;;;36.83;7.20;;;;;;;;;;5084154;28;20044;-76
2022/01/03 14:05:19;;;;;;;33.20;5.97;;;;;;;;;;5063879;28;20047;-76
2022/01/03 14:07:52;;;;;;;28.67;5.75;;;;;;;;;;5084129;28;20463;-76
2022/01/03 14:10:18;;;;;;;31.80;5.20;;;;;;;;;;5065509;28;20070;-76
2022/01/03 14:12:53;;;;;;;31.52;5.10;;;;;;;;;;5105662;28;20081;-74
2022/01/03 14:15:20;;;;;;;32.60;5.05;;;;;;;;;;5074076;28;20043;-74
2022/01/03 14:17:50;;;;;;;44.03;6.30;;;;;;;;;;5108224;28;20051;-75
2022/01/03 14:20:17;;;;;;;41.92;5.07;;;;;;;;;;5073331;28;20388;-76
2022/01/03 14:22:45;;;;;;;42.05;6.53;;;;;;;;;;5085717;28;20121;-78
2022/01/03 14:25:12;;;;;;;31.80;5.95;;;;;;;;;;5070960;28;20043;-78
2022/01/03 14:27:57;;;;;;;36.78;5.13;;;;;;;;;;5084706;28;20040;-78
2022/01/03 14:30:30;;;;;;;44.78;5.93;;;;;;;;;;5086573;28;20044;-75
2022/01/03 14:32:58;;;;;;;35.65;5.47;;;;;;;;;;5088092;28;20078;-76
2022/01/03 14:35:44;;;;;;;33.45;5.25;;;;;;;;;;5090307;28;20043;-76
2022/01/03 14:38:10;;;;;;;41.70;6.07;;;;;;;;;;5105556;28;20045;-77
2022/01/03 14:40:37;;;;;;;39.10;6.80;;;;;;;;;;5090944;28;20116;-77
2022/01/03 14:43:04;;;;;;;44.35;5.75;;;;;;;;;;5090604;28;20047;-76
2022/01/03 14:45:32;;;;;;;34.53;5.80;;;;;;;;;;5093578;28;20089;-77
2022/01/03 14:48:03;;;;;;;39.33;5.63;;;;;;;;;;5093370;28;20055;-77
2022/01/03 14:50:29;;;;;;;42.17;5.97;;;;;;;;;;5076385;28;20040;-79
2022/01/03 14:52:57;;;;;;;34.47;5.75;;;;;;;;;;5109544;28;20051;-76
2022/01/03 14:55:36;;;;;;;40.55;6.38;;;;;;;;;;5092191;28;20370;-76
2022/01/03 14:58:04;;;;;;;44.20;7.82;;;;;;;;;;5087339;28;20051;-82
2022/01/03 15:00:30;;;;;;;39.17;6.35;;;;;;;;;;5093390;28;21027;-77
2022/01/03 15:02:56;;;;;;;45.10;6.97;;;;;;;;;;5075183;28;20079;-77